Achim Manz-Bothe 1:30:00 row

21,408

Meters

1:30:00.0

Time

2:06.1

Pace

1340

Calories

120

Heart Rate

Average Watts174
Calories Per Hour893
Stroke Rate28

August 04, 2019 13:56:00

Workout
RowErg

Workout Type
Fixed Time

Weight Class
Hwt

Verified
Yes

Entered
Concept2 Utility

Splits

Time Meters Pace Watts Cal/Hr Cal S/M
1:30:00.0 21,408 2:06.1 174 893 1340 28 120
3:00.0 699 2:08.7 164 860 43 28 112
6:00.0 705 2:07.6 168 860 43 29 111
9:00.0 706 2:07.4 169 880 44 29 112
12:00.0 710 2:06.7 172 880 44 28 117
15:00.0 712 2:06.4 173 880 44 28 117
18:00.0 714 2:06.0 175 900 45 28 116
21:00.0 714 2:06.0 175 900 45 28 116
24:00.0 714 2:06.0 175 900 45 28 118
27:00.0 712 2:06.4 173 880 44 28 117
30:00.0 712 2:06.4 173 880 44 28 118
33:00.0 714 2:06.0 175 900 45 28 116
36:00.0 714 2:06.0 175 900 45 28 119
39:00.0 715 2:05.8 175 900 45 28 119
42:00.0 715 2:05.8 175 900 45 28 120
45:00.0 715 2:05.8 175 900 45 28 120
48:00.0 716 2:05.6 176 900 45 28 122
51:00.0 714 2:06.0 175 900 45 28 122
54:00.0 713 2:06.2 174 880 44 28 123
57:00.0 715 2:05.8 175 900 45 28 122
1:00:00.0 717 2:05.5 177 900 45 28 124
1:03:00.0 715 2:05.8 175 900 45 28 123
1:06:00.0 715 2:05.8 175 900 45 28 125
1:09:00.0 718 2:05.3 178 900 45 28 126
1:12:00.0 716 2:05.6 176 900 45 28 126
1:15:00.0 717 2:05.5 177 900 45 28 126
1:18:00.0 721 2:04.8 180 900 45 28 128
1:21:00.0 714 2:06.0 175 900 45 28 126
1:24:00.0 722 2:04.6 181 920 46 28 127
1:27:00.0 712 2:06.4 173 880 44 27 129
1:30:00.0 716 2:05.6 176 900 45 28 129